sensor_id;sensor_type;location;lat;lon;timestamp;pressure;altitude;pressure_sealevel;temperature;humidity
70968;BME280;58629;48.808;8.820;2023-02-08T00:01:39;99047.78;;;-4.45;87.13
70968;BME280;58629;48.808;8.820;2023-02-08T00:04:04;99047.78;;;-4.50;87.06
70968;BME280;58629;48.808;8.820;2023-02-08T00:06:29;99043.41;;;-4.59;88.00
70968;BME280;58629;48.808;8.820;2023-02-08T00:08:55;99034.88;;;-4.55;87.63
70968;BME280;58629;48.808;8.820;2023-02-08T00:11:20;99034.09;;;-4.55;88.67
70968;BME280;58629;48.808;8.820;2023-02-08T00:13:47;99035.66;;;-4.59;88.45
70968;BME280;58629;48.808;8.820;2023-02-08T00:16:13;99041.34;;;-4.62;88.17
70968;BME280;58629;48.808;8.820;2023-02-08T00:18:44;99030.78;;;-4.66;88.02
70968;BME280;58629;48.808;8.820;2023-02-08T00:21:11;99035.41;;;-4.68;87.81
70968;BME280;58629;48.808;8.820;2023-02-08T00:23:37;99039.81;;;-4.68;87.54
70968;BME280;58629;48.808;8.820;2023-02-08T00:26:03;99035.16;;;-4.66;87.60
70968;BME280;58629;48.808;8.820;2023-02-08T00:28:29;99031.53;;;-4.65;87.87
70968;BME280;58629;48.808;8.820;2023-02-08T00:30:54;99030.00;;;-4.66;87.70
70968;BME280;58629;48.808;8.820;2023-02-08T00:33:19;99026.88;;;-4.63;87.65
70968;BME280;58629;48.808;8.820;2023-02-08T00:35:47;99023.53;;;-4.64;87.54
70968;BME280;58629;48.808;8.820;2023-02-08T00:38:12;99023.00;;;-4.71;86.55
70968;BME280;58629;48.808;8.820;2023-02-08T00:40:37;99019.91;;;-4.68;88.40
70968;BME280;58629;48.808;8.820;2023-02-08T00:43:02;99018.09;;;-4.72;88.03
70968;BME280;58629;48.808;8.820;2023-02-08T00:45:28;99022.00;;;-4.70;88.47
70968;BME280;58629;48.808;8.820;2023-02-08T00:47:53;99022.75;;;-4.79;87.88
70968;BME280;58629;48.808;8.820;2023-02-08T00:50:19;99019.94;;;-4.78;88.26
70968;BME280;58629;48.808;8.820;2023-02-08T00:52:44;99020.94;;;-4.79;88.38
70968;BME280;58629;48.808;8.820;2023-02-08T00:55:09;99020.69;;;-4.82;88.10
70968;BME280;58629;48.808;8.820;2023-02-08T00:57:35;99028.72;;;-4.84;88.00
70968;BME280;58629;48.808;8.820;2023-02-08T01:00:01;99028.44;;;-4.82;87.38
70968;BME280;58629;48.808;8.820;2023-02-08T01:02:27;99020.97;;;-4.84;87.88
70968;BME280;58629;48.808;8.820;2023-02-08T01:04:52;99041.38;;;-4.92;87.64
70968;BME280;58629;48.808;8.820;2023-02-08T01:07:18;99042.16;;;-4.92;88.06
70968;BME280;58629;48.808;8.820;2023-02-08T01:09:43;99038.53;;;-4.96;88.17
70968;BME280;58629;48.808;8.820;2023-02-08T01:12:09;99038.53;;;-5.01;88.50
70968;BME280;58629;48.808;8.820;2023-02-08T01:14:36;99040.34;;;-5.01;88.80
70968;BME280;58629;48.808;8.820;2023-02-08T01:17:02;99035.94;;;-5.11;88.85
70968;BME280;58629;48.808;8.820;2023-02-08T01:19:27;99032.34;;;-5.10;88.95
70968;BME280;58629;48.808;8.820;2023-02-08T01:21:52;99037.78;;;-5.11;88.56
70968;BME280;58629;48.808;8.820;2023-02-08T01:24:19;99028.47;;;-5.17;88.18
70968;BME280;58629;48.808;8.820;2023-02-08T01:26:44;99031.56;;;-5.20;87.55
70968;BME280;58629;48.808;8.820;2023-02-08T01:29:09;99023.81;;;-5.25;87.88
70968;BME280;58629;48.808;8.820;2023-02-08T01:31:37;99017.88;;;-5.26;88.49
70968;BME280;58629;48.808;8.820;2023-02-08T01:34:03;99016.06;;;-5.25;88.68
70968;BME280;58629;48.808;8.820;2023-02-08T01:36:30;99016.34;;;-5.27;88.25
70968;BME280;58629;48.808;8.820;2023-02-08T01:38:56;99018.66;;;-5.25;88.27
70968;BME280;58629;48.808;8.820;2023-02-08T01:41:25;99020.19;;;-5.30;88.06
70968;BME280;58629;48.808;8.820;2023-02-08T01:46:45;99011.91;;;-5.37;88.27
70968;BME280;58629;48.808;8.820;2023-02-08T01:52:07;99006.50;;;-5.35;87.89
70968;BME280;58629;48.808;8.820;2023-02-08T01:55:04;99009.09;;;-5.35;87.81
70968;BME280;58629;48.808;8.820;2023-02-08T01:57:31;99003.41;;;-5.42;87.98
70968;BME280;58629;48.808;8.820;2023-02-08T02:00:00;99004.97;;;-5.41;87.90
70968;BME280;58629;48.808;8.820;2023-02-08T02:02:27;98994.63;;;-5.41;87.26
70968;BME280;58629;48.808;8.820;2023-02-08T02:04:53;98999.25;;;-5.48;86.50
70968;BME280;58629;48.808;8.820;2023-02-08T02:07:21;98994.09;;;-5.48;86.81
70968;BME280;58629;48.808;8.820;2023-02-08T02:09:55;98993.84;;;-5.47;87.25
70968;BME280;58629;48.808;8.820;2023-02-08T02:12:21;98985.56;;;-5.54;87.23
70968;BME280;58629;48.808;8.820;2023-02-08T02:14:46;98980.41;;;-5.59;87.98
70968;BME280;58629;48.808;8.820;2023-02-08T02:17:15;98982.22;;;-5.59;87.10
70968;BME280;58629;48.808;8.820;2023-02-08T02:20:03;98977.81;;;-5.64;88.06
70968;BME280;58629;48.808;8.820;2023-02-08T02:33:59;98961.03;;;-5.71;88.30
70968;BME280;58629;48.808;8.820;2023-02-08T02:42:27;98972.91;;;-5.75;88.25
70968;BME280;58629;48.808;8.820;2023-02-08T02:50:35;98973.41;;;-5.78;87.79
70968;BME280;58629;48.808;8.820;2023-02-08T02:55:53;98968.75;;;-5.81;88.16
70968;BME280;58629;48.808;8.820;2023-02-08T02:58:21;98970.06;;;-5.84;88.24
70968;BME280;58629;48.808;8.820;2023-02-08T03:00:56;98967.22;;;-5.87;87.67
70968;BME280;58629;48.808;8.820;2023-02-08T03:03:25;98976.00;;;-5.83;88.00
70968;BME280;58629;48.808;8.820;2023-02-08T03:05:53;98966.97;;;-5.86;87.65
70968;BME280;58629;48.808;8.820;2023-02-08T03:11:02;98966.19;;;-5.91;88.11
70968;BME280;58629;48.808;8.820;2023-02-08T03:13:48;98971.34;;;-5.91;87.04
70968;BME280;58629;48.808;8.820;2023-02-08T03:16:25;98965.66;;;-5.98;87.18
70968;BME280;58629;48.808;8.820;2023-02-08T03:19:17;98969.53;;;-5.96;87.98
70968;BME280;58629;48.808;8.820;2023-02-08T03:21:54;98972.38;;;-5.97;87.41
70968;BME280;58629;48.808;8.820;2023-02-08T03:24:31;98971.34;;;-5.96;87.21
70968;BME280;58629;48.808;8.820;2023-02-08T03:27:05;98975.97;;;-6.03;86.77
70968;BME280;58629;48.808;8.820;2023-02-08T03:32:21;98972.84;;;-6.10;87.82
70968;BME280;58629;48.808;8.820;2023-02-08T03:34:56;98969.50;;;-6.11;87.00
70968;BME280;58629;48.808;8.820;2023-02-08T03:37:44;98976.19;;;-6.10;86.86
70968;BME280;58629;48.808;8.820;2023-02-08T03:40:17;98972.06;;;-6.11;86.95
70968;BME280;58629;48.808;8.820;2023-02-08T03:42:45;98973.88;;;-6.11;86.67
70968;BME280;58629;48.808;8.820;2023-02-08T03:45:24;98975.94;;;-6.13;86.74
70968;BME280;58629;48.808;8.820;2023-02-08T03:47:52;98971.28;;;-6.11;87.42
70968;BME280;58629;48.808;8.820;2023-02-08T03:50:20;98979.03;;;-6.16;86.88
70968;BME280;58629;48.808;8.820;2023-02-08T03:52:47;98966.91;;;-6.16;86.07
70968;BME280;58629;48.808;8.820;2023-02-08T03:55:19;98973.09;;;-6.17;86.61
70968;BME280;58629;48.808;8.820;2023-02-08T03:57:54;98975.66;;;-6.17;87.24
70968;BME280;58629;48.808;8.820;2023-02-08T04:00:20;98964.34;;;-6.16;87.16
70968;BME280;58629;48.808;8.820;2023-02-08T04:02:56;98970.97;;;-6.30;85.90
70968;BME280;58629;48.808;8.820;2023-02-08T04:05:27;98969.97;;;-6.24;86.56
70968;BME280;58629;48.808;8.820;2023-02-08T04:07:52;98969.16;;;-6.30;87.14
70968;BME280;58629;48.808;8.820;2023-02-08T04:10:20;98968.59;;;-6.42;86.11
70968;BME280;58629;48.808;8.820;2023-02-08T04:12:49;98970.69;;;-6.39;87.48
70968;BME280;58629;48.808;8.820;2023-02-08T04:15:17;98968.59;;;-6.42;86.27
70968;BME280;58629;48.808;8.820;2023-02-08T04:17:44;98969.13;;;-6.40;86.35
70968;BME280;58629;48.808;8.820;2023-02-08T04:20:10;98962.69;;;-6.42;87.13
70968;BME280;58629;48.808;8.820;2023-02-08T04:22:35;98967.81;;;-6.47;86.70
70968;BME280;58629;48.808;8.820;2023-02-08T04:25:03;98957.78;;;-6.44;87.09
70968;BME280;58629;48.808;8.820;2023-02-08T04:27:28;98968.84;;;-6.48;86.54
70968;BME280;58629;48.808;8.820;2023-02-08T04:29:53;98962.16;;;-6.44;86.41
70968;BME280;58629;48.808;8.820;2023-02-08T04:32:18;98967.31;;;-6.44;86.59
70968;BME280;58629;48.808;8.820;2023-02-08T04:34:44;98968.84;;;-6.48;87.39
70968;BME280;58629;48.808;8.820;2023-02-08T04:37:09;98970.63;;;-6.54;86.54
70968;BME280;58629;48.808;8.820;2023-02-08T04:39:35;98962.59;;;-6.57;86.31
70968;BME280;58629;48.808;8.820;2023-02-08T04:42:00;98968.81;;;-6.53;87.35
70968;BME280;58629;48.808;8.820;2023-02-08T04:44:25;98962.63;;;-6.52;87.69
70968;BME280;58629;48.808;8.820;2023-02-08T04:46:51;98961.84;;;-6.58;87.39
70968;BME280;58629;48.808;8.820;2023-02-08T04:49:17;98961.84;;;-6.58;87.50
70968;BME280;58629;48.808;8.820;2023-02-08T04:51:43;98957.72;;;-6.59;85.97
70968;BME280;58629;48.808;8.820;2023-02-08T04:54:08;98959.28;;;-6.58;87.29
70968;BME280;58629;48.808;8.820;2023-02-08T04:56:34;98952.53;;;-6.64;86.14
70968;BME280;58629;48.808;8.820;2023-02-08T04:59:00;98948.66;;;-6.66;86.89
70968;BME280;58629;48.808;8.820;2023-02-08T05:01:25;98942.47;;;-6.65;85.42
70968;BME280;58629;48.808;8.820;2023-02-08T05:03:50;98941.97;;;-6.62;86.12
70968;BME280;58629;48.808;8.820;2023-02-08T05:06:16;98942.72;;;-6.72;85.97
70968;BME280;58629;48.808;8.820;2023-02-08T05:08:41;98937.56;;;-6.72;86.22
70968;BME280;58629;48.808;8.820;2023-02-08T05:11:08;98940.38;;;-6.73;86.42
70968;BME280;58629;48.808;8.820;2023-02-08T05:13:34;98933.16;;;-6.71;86.73
70968;BME280;58629;48.808;8.820;2023-02-08T05:15:59;98940.63;;;-6.75;85.93
70968;BME280;58629;48.808;8.820;2023-02-08T05:18:24;98942.16;;;-6.79;85.55
70968;BME280;58629;48.808;8.820;2023-02-08T05:20:54;98935.94;;;-6.83;86.07
70968;BME280;58629;48.808;8.820;2023-02-08T05:23:20;98941.09;;;-6.83;86.35
70968;BME280;58629;48.808;8.820;2023-02-08T05:25:45;98938.28;;;-6.81;86.89
70968;BME280;58629;48.808;8.820;2023-02-08T05:28:13;98939.81;;;-6.85;86.74
70968;BME280;58629;48.808;8.820;2023-02-08T05:30:38;98933.09;;;-6.91;87.19
70968;BME280;58629;48.808;8.820;2023-02-08T05:33:03;98943.06;;;-6.95;86.98
70968;BME280;58629;48.808;8.820;2023-02-08T05:35:29;98937.94;;;-6.95;86.43
70968;BME280;58629;48.808;8.820;2023-02-08T05:37:54;98934.81;;;-6.97;86.54
70968;BME280;58629;48.808;8.820;2023-02-08T05:40:21;98940.50;;;-6.95;87.06
70968;BME280;58629;48.808;8.820;2023-02-08T05:42:47;98936.41;;;-6.91;86.58
70968;BME280;58629;48.808;8.820;2023-02-08T05:45:12;98934.88;;;-6.92;86.54
70968;BME280;58629;48.808;8.820;2023-02-08T05:47:38;98942.34;;;-6.90;86.97
70968;BME280;58629;48.808;8.820;2023-02-08T05:50:03;98939.97;;;-7.02;86.45
70968;BME280;58629;48.808;8.820;2023-02-08T05:52:29;98946.16;;;-6.98;86.65
70968;BME280;58629;48.808;8.820;2023-02-08T05:54:54;98936.66;;;-6.97;87.12
70968;BME280;58629;48.808;8.820;2023-02-08T05:57:20;98940.75;;;-6.96;86.79
70968;BME280;58629;48.808;8.820;2023-02-08T05:59:45;98945.38;;;-6.98;85.66
70968;BME280;58629;48.808;8.820;2023-02-08T06:02:10;98950.28;;;-6.97;86.27
70968;BME280;58629;48.808;8.820;2023-02-08T06:04:38;98940.09;;;-6.15;99.25
70968;BME280;58629;48.808;8.820;2023-02-08T06:07:05;98943.47;;;-5.09;100.00
70968;BME280;58629;48.808;8.820;2023-02-08T06:09:30;98939.03;;;-4.09;100.00
70968;BME280;58629;48.808;8.820;2023-02-08T06:11:56;98939.22;;;-3.23;100.00
70968;BME280;58629;48.808;8.820;2023-02-08T06:14:29;98943.56;;;-3.91;95.78
70968;BME280;58629;48.808;8.820;2023-02-08T06:16:54;98948.63;;;-4.15;86.68
70968;BME280;58629;48.808;8.820;2023-02-08T06:19:19;98943.38;;;-4.54;81.61
70968;BME280;58629;48.808;8.820;2023-02-08T06:21:45;98949.41;;;-4.98;80.52
70968;BME280;58629;48.808;8.820;2023-02-08T06:24:10;98954.88;;;-5.40;80.57
70968;BME280;58629;48.808;8.820;2023-02-08T06:26:36;98952.00;;;-5.79;81.47
70968;BME280;58629;48.808;8.820;2023-02-08T06:29:01;98955.88;;;-5.96;83.52
70968;BME280;58629;48.808;8.820;2023-02-08T06:31:26;98956.38;;;-6.04;83.91
70968;BME280;58629;48.808;8.820;2023-02-08T06:33:52;98950.13;;;-6.18;84.52
70968;BME280;58629;48.808;8.820;2023-02-08T06:36:17;98957.06;;;-6.29;85.43
70968;BME280;58629;48.808;8.820;2023-02-08T06:38:42;98955.22;;;-6.34;83.91
70968;BME280;58629;48.808;8.820;2023-02-08T06:41:08;98955.97;;;-6.43;83.55
70968;BME280;58629;48.808;8.820;2023-02-08T06:43:33;98957.44;;;-6.62;83.42
70968;BME280;58629;48.808;8.820;2023-02-08T06:45:59;98957.44;;;-6.62;85.19
70968;BME280;58629;48.808;8.820;2023-02-08T06:48:24;98965.38;;;-6.69;84.64
70968;BME280;58629;48.808;8.820;2023-02-08T06:50:52;98959.66;;;-6.81;85.22
70968;BME280;58629;48.808;8.820;2023-02-08T06:53:19;98957.59;;;-6.79;85.19
70968;BME280;58629;48.808;8.820;2023-02-08T06:55:50;98964.03;;;-6.81;85.73
70968;BME280;58629;48.808;8.820;2023-02-08T06:58:16;98970.72;;;-6.80;85.17
70968;BME280;58629;48.808;8.820;2023-02-08T07:00:49;98967.88;;;-6.84;86.06
70968;BME280;58629;48.808;8.820;2023-02-08T07:03:14;98966.09;;;-6.83;85.50
70968;BME280;58629;48.808;8.820;2023-02-08T07:05:41;98962.16;;;-6.91;84.57
70968;BME280;58629;48.808;8.820;2023-02-08T07:08:07;98979.44;;;-6.91;85.55
70968;BME280;58629;48.808;8.820;2023-02-08T07:10:33;98977.63;;;-6.91;85.53
70968;BME280;58629;48.808;8.820;2023-02-08T07:13:02;98976.34;;;-6.93;86.53
70968;BME280;58629;48.808;8.820;2023-02-08T07:15:28;98977.59;;;-6.96;86.40
70968;BME280;58629;48.808;8.820;2023-02-08T07:17:55;98977.00;;;-7.08;87.60
70968;BME280;58629;48.808;8.820;2023-02-08T07:20:22;98985.16;;;-7.16;88.41
70968;BME280;58629;48.808;8.820;2023-02-08T07:22:48;98980.59;;;-7.09;89.50
70968;BME280;58629;48.808;8.820;2023-02-08T07:25:13;98979.56;;;-7.08;88.65
70968;BME280;58629;48.808;8.820;2023-02-08T07:27:38;98986.56;;;-7.03;89.31
70968;BME280;58629;48.808;8.820;2023-02-08T07:30:04;98982.22;;;-6.98;90.08
70968;BME280;58629;48.808;8.820;2023-02-08T07:32:32;98983.34;;;-6.84;90.47
70968;BME280;58629;48.808;8.820;2023-02-08T07:34:57;98974.56;;;-6.83;90.46
70968;BME280;58629;48.808;8.820;2023-02-08T07:37:23;98979.00;;;-6.73;90.85
70968;BME280;58629;48.808;8.820;2023-02-08T07:39:49;98983.66;;;-6.70;90.36
70968;BME280;58629;48.808;8.820;2023-02-08T07:42:16;98978.59;;;-6.55;90.03
70968;BME280;58629;48.808;8.820;2023-02-08T07:44:42;98971.91;;;-6.51;89.64
70968;BME280;58629;48.808;8.820;2023-02-08T07:47:07;98983.03;;;-6.41;89.80
70968;BME280;58629;48.808;8.820;2023-02-08T07:49:33;98976.13;;;-6.30;90.59
70968;BME280;58629;48.808;8.820;2023-02-08T07:51:59;98981.81;;;-6.28;90.08
70968;BME280;58629;48.808;8.820;2023-02-08T07:54:25;98974.88;;;-6.23;89.62
70968;BME280;58629;48.808;8.820;2023-02-08T07:56:51;98963.28;;;-6.15;90.48
70968;BME280;58629;48.808;8.820;2023-02-08T07:59:16;98968.22;;;-6.03;90.81
70968;BME280;58629;48.808;8.820;2023-02-08T08:01:41;98971.59;;;-5.98;90.61
70968;BME280;58629;48.808;8.820;2023-02-08T08:04:07;98957.97;;;-5.88;90.53
70968;BME280;58629;48.808;8.820;2023-02-08T08:06:32;98956.13;;;-5.78;90.91
70968;BME280;58629;48.808;8.820;2023-02-08T08:08:58;98963.88;;;-5.68;90.22
70968;BME280;58629;48.808;8.820;2023-02-08T08:11:23;98960.00;;;-5.60;89.88
70968;BME280;58629;48.808;8.820;2023-02-08T08:13:48;98961.56;;;-5.54;90.21
70968;BME280;58629;48.808;8.820;2023-02-08T08:16:14;98965.97;;;-5.50;89.75
70968;BME280;58629;48.808;8.820;2023-02-08T08:18:40;98959.53;;;-5.37;90.11
70968;BME280;58629;48.808;8.820;2023-02-08T08:21:05;98953.84;;;-5.29;90.11
70968;BME280;58629;48.808;8.820;2023-02-08T08:23:31;98962.09;;;-5.22;89.90
70968;BME280;58629;48.808;8.820;2023-02-08T08:25:59;98963.63;;;-5.11;89.49
70968;BME280;58629;48.808;8.820;2023-02-08T08:28:25;98961.81;;;-5.00;90.66
70968;BME280;58629;48.808;8.820;2023-02-08T08:30:50;98964.38;;;-4.90;90.20
70968;BME280;58629;48.808;8.820;2023-02-08T08:33:16;98967.72;;;-4.80;90.16
70968;BME280;58629;48.808;8.820;2023-02-08T08:35:41;98960.47;;;-4.73;90.18
70968;BME280;58629;48.808;8.820;2023-02-08T08:38:08;98964.06;;;-4.64;89.63
70968;BME280;58629;48.808;8.820;2023-02-08T08:40:35;98953.19;;;-4.56;89.55
70968;BME280;58629;48.808;8.820;2023-02-08T08:43:00;98956.00;;;-4.42;90.57
70968;BME280;58629;48.808;8.820;2023-02-08T08:45:26;98958.78;;;-4.33;87.91
70968;BME280;58629;48.808;8.820;2023-02-08T08:47:51;98949.97;;;-4.22;86.90
70968;BME280;58629;48.808;8.820;2023-02-08T08:50:17;98953.28;;;-4.17;84.67
70968;BME280;58629;48.808;8.820;2023-02-08T08:52:42;98947.06;;;-4.11;84.17
70968;BME280;58629;48.808;8.820;2023-02-08T08:55:08;98952.41;;;-3.97;84.64
70968;BME280;58629;48.808;8.820;2023-02-08T08:57:33;98942.56;;;-3.90;84.24
70968;BME280;58629;48.808;8.820;2023-02-08T08:59:58;98942.22;;;-3.79;83.44
70968;BME280;58629;48.808;8.820;2023-02-08T09:02:24;98940.06;;;-3.67;83.71
70968;BME280;58629;48.808;8.820;2023-02-08T09:04:49;98939.22;;;-3.57;82.98
70968;BME280;58629;48.808;8.820;2023-02-08T09:07:14;98937.56;;;-3.43;83.47
70968;BME280;58629;48.808;8.820;2023-02-08T09:09:42;98935.13;;;-3.34;82.10
70968;BME280;58629;48.808;8.820;2023-02-08T09:12:12;98934.34;;;-3.30;80.39
70968;BME280;58629;48.808;8.820;2023-02-08T09:14:37;98935.53;;;-3.17;80.16
70968;BME280;58629;48.808;8.820;2023-02-08T09:17:03;98938.56;;;-3.10;80.68
70968;BME280;58629;48.808;8.820;2023-02-08T09:19:29;98943.13;;;-2.97;80.65
70968;BME280;58629;48.808;8.820;2023-02-08T09:21:54;98940.91;;;-2.85;78.82
70968;BME280;58629;48.808;8.820;2023-02-08T09:24:19;98935.63;;;-2.75;78.74
70968;BME280;58629;48.808;8.820;2023-02-08T09:26:44;98932.81;;;-2.55;77.69
70968;BME280;58629;48.808;8.820;2023-02-08T09:29:10;98922.97;;;-2.34;75.68
70968;BME280;58629;48.808;8.820;2023-02-08T09:31:35;98926.16;;;-2.19;74.53
70968;BME280;58629;48.808;8.820;2023-02-08T09:34:03;98923.09;;;-2.02;72.67
70968;BME280;58629;48.808;8.820;2023-02-08T09:36:32;98924.13;;;-1.85;73.46
70968;BME280;58629;48.808;8.820;2023-02-08T09:39:03;98923.34;;;-1.66;70.47
70968;BME280;58629;48.808;8.820;2023-02-08T09:46:55;98915.97;;;-1.27;67.78
70968;BME280;58629;48.808;8.820;2023-02-08T09:49:27;98913.47;;;-1.19;66.04
70968;BME280;58629;48.808;8.820;2023-02-08T09:52:15;98911.88;;;-1.01;63.06
70968;BME280;58629;48.808;8.820;2023-02-08T09:54:47;98915.81;;;-0.90;63.24
70968;BME280;58629;48.808;8.820;2023-02-08T09:57:20;98908.88;;;-0.81;61.65
70968;BME280;58629;48.808;8.820;2023-02-08T10:00:03;98915.16;;;-0.82;61.27
70968;BME280;58629;48.808;8.820;2023-02-08T10:02:32;98914.97;;;-0.72;61.30
70968;BME280;58629;48.808;8.820;2023-02-08T10:07:27;98917.75;;;-0.55;59.94
70968;BME280;58629;48.808;8.820;2023-02-08T10:09:54;98911.78;;;-0.42;60.90
70968;BME280;58629;48.808;8.820;2023-02-08T10:23:35;98907.84;;;-0.04;58.93
70968;BME280;58629;48.808;8.820;2023-02-08T10:28:57;98903.09;;;-0.02;58.10
70968;BME280;58629;48.808;8.820;2023-02-08T10:34:10;98893.81;;;0.20;60.32
70968;BME280;58629;48.808;8.820;2023-02-08T10:36:42;98890.00;;;0.26;58.61
70968;BME280;58629;48.808;8.820;2023-02-08T10:39:16;98888.16;;;0.26;56.66
70968;BME280;58629;48.808;8.820;2023-02-08T10:41:43;98884.84;;;0.34;57.97
70968;BME280;58629;48.808;8.820;2023-02-08T10:47:22;98876.22;;;0.47;57.84
70968;BME280;58629;48.808;8.820;2023-02-08T10:52:35;98883.47;;;0.59;55.95
70968;BME280;58629;48.808;8.820;2023-02-08T10:55:01;98879.63;;;0.56;55.79
70968;BME280;58629;48.808;8.820;2023-02-08T10:57:33;98872.59;;;0.57;56.15
70968;BME280;58629;48.808;8.820;2023-02-08T11:00:02;98871.38;;;0.63;57.17
70968;BME280;58629;48.808;8.820;2023-02-08T11:02:34;98868.53;;;0.73;55.88
70968;BME280;58629;48.808;8.820;2023-02-08T11:07:40;98867.88;;;0.98;54.69
70968;BME280;58629;48.808;8.820;2023-02-08T11:10:21;98864.94;;;1.00;54.27
70968;BME280;58629;48.808;8.820;2023-02-08T11:12:59;98861.88;;;0.98;55.20
70968;BME280;58629;48.808;8.820;2023-02-08T11:15:29;98858.69;;;1.01;53.92
70968;BME280;58629;48.808;8.820;2023-02-08T11:17:59;98851.66;;;1.10;55.42
70968;BME280;58629;48.808;8.820;2023-02-08T11:20:33;98855.19;;;1.14;54.47
70968;BME280;58629;48.808;8.820;2023-02-08T11:23:01;98842.28;;;1.17;55.25
70968;BME280;58629;48.808;8.820;2023-02-08T11:25:33;98846.47;;;1.18;54.52
70968;BME280;58629;48.808;8.820;2023-02-08T11:28:00;98839.09;;;1.20;55.29
70968;BME280;58629;48.808;8.820;2023-02-08T11:30:25;98845.47;;;1.53;56.37
70968;BME280;58629;48.808;8.820;2023-02-08T11:35:39;98840.84;;;1.59;54.13
70968;BME280;58629;48.808;8.820;2023-02-08T11:38:05;98839.78;;;1.51;53.58
70968;BME280;58629;48.808;8.820;2023-02-08T11:40:34;98837.03;;;1.56;54.33
70968;BME280;58629;48.808;8.820;2023-02-08T11:43:00;98830.25;;;1.55;53.29
70968;BME280;58629;48.808;8.820;2023-02-08T11:45:30;98825.03;;;1.72;54.86
70968;BME280;58629;48.808;8.820;2023-02-08T11:47:57;98817.38;;;1.67;53.03
70968;BME280;58629;48.808;8.820;2023-02-08T11:50:32;98823.81;;;1.87;53.23
70968;BME280;58629;48.808;8.820;2023-02-08T11:53:24;98815.34;;;1.99;53.81
70968;BME280;58629;48.808;8.820;2023-02-08T11:56:14;98804.00;;;2.03;52.87
70968;BME280;58629;48.808;8.820;2023-02-08T11:58:41;98807.81;;;2.14;53.53
70968;BME280;58629;48.808;8.820;2023-02-08T12:01:18;98807.06;;;2.14;52.81
70968;BME280;58629;48.808;8.820;2023-02-08T12:03:47;98804.09;;;2.32;53.23
70968;BME280;58629;48.808;8.820;2023-02-08T12:11:44;98803.16;;;2.45;51.28
70968;BME280;58629;48.808;8.820;2023-02-08T12:17:16;98802.31;;;2.62;52.16
70968;BME280;58629;48.808;8.820;2023-02-08T12:22:24;98792.88;;;2.78;50.80
70968;BME280;58629;48.808;8.820;2023-02-08T12:25:23;98792.41;;;2.76;50.70
70968;BME280;58629;48.808;8.820;2023-02-08T12:33:36;98788.00;;;3.26;49.64
70968;BME280;58629;48.808;8.820;2023-02-08T12:36:26;98782.50;;;3.19;48.85
70968;BME280;58629;48.808;8.820;2023-02-08T12:47:42;98757.13;;;3.40;50.16
70968;BME280;58629;48.808;8.820;2023-02-08T12:50:26;98755.06;;;3.46;49.79
70968;BME280;58629;48.808;8.820;2023-02-08T12:53:08;98753.41;;;3.41;48.87
70968;BME280;58629;48.808;8.820;2023-02-08T12:55:40;98760.22;;;3.34;49.20
70968;BME280;58629;48.808;8.820;2023-02-08T13:00:47;98747.22;;;3.46;48.58
70968;BME280;58629;48.808;8.820;2023-02-08T13:03:54;98743.19;;;3.48;48.50
70968;BME280;58629;48.808;8.820;2023-02-08T13:06:29;98733.00;;;3.47;48.99
70968;BME280;58629;48.808;8.820;2023-02-08T13:14:54;98721.19;;;3.41;48.79
70968;BME280;58629;48.808;8.820;2023-02-08T13:17:25;98723.75;;;3.49;49.53
70968;BME280;58629;48.808;8.820;2023-02-08T13:19:58;98718.53;;;3.49;48.91
70968;BME280;58629;48.808;8.820;2023-02-08T13:22:30;98714.69;;;3.47;48.72
70968;BME280;58629;48.808;8.820;2023-02-08T13:24:56;98713.03;;;3.42;48.44
70968;BME280;58629;48.808;8.820;2023-02-08T13:27:22;98709.97;;;3.40;49.01
70968;BME280;58629;48.808;8.820;2023-02-08T13:29:50;98704.03;;;3.52;49.86
70968;BME280;58629;48.808;8.820;2023-02-08T13:34:45;98700.78;;;3.67;47.46
70968;BME280;58629;48.808;8.820;2023-02-08T13:37:23;98694.47;;;3.68;48.60
70968;BME280;58629;48.808;8.820;2023-02-08T13:39:57;98701.19;;;3.57;48.74
70968;BME280;58629;48.808;8.820;2023-02-08T13:42:30;98688.88;;;3.58;48.97
70968;BME280;58629;48.808;8.820;2023-02-08T13:44:57;98694.66;;;3.63;48.91
70968;BME280;58629;48.808;8.820;2023-02-08T13:47:26;98685.81;;;3.56;47.15
70968;BME280;58629;48.808;8.820;2023-02-08T13:50:00;98687.97;;;3.53;49.01
70968;BME280;58629;48.808;8.820;2023-02-08T14:00:23;98686.88;;;3.54;48.05
70968;BME280;58629;48.808;8.820;2023-02-08T14:03:30;98686.19;;;3.45;48.32
70968;BME280;58629;48.808;8.820;2023-02-08T14:05:55;98683.19;;;3.56;48.79
70968;BME280;58629;48.808;8.820;2023-02-08T14:14:05;98686.59;;;3.56;48.12
70968;BME280;58629;48.808;8.820;2023-02-08T14:19:33;98678.16;;;3.50;48.46
70968;BME280;58629;48.808;8.820;2023-02-08T14:22:02;98683.50;;;3.54;48.90
70968;BME280;58629;48.808;8.820;2023-02-08T14:24:31;98687.16;;;3.41;48.74
70968;BME280;58629;48.808;8.820;2023-02-08T14:27:16;98686.16;;;3.33;48.97
70968;BME280;58629;48.808;8.820;2023-02-08T14:29:54;98690.94;;;3.31;48.64
70968;BME280;58629;48.808;8.820;2023-02-08T14:32:23;98683.09;;;3.31;49.67
70968;BME280;58629;48.808;8.820;2023-02-08T14:35:02;98675.88;;;3.28;48.52
70968;BME280;58629;48.808;8.820;2023-02-08T14:37:31;98684.47;;;3.29;49.90
70968;BME280;58629;48.808;8.820;2023-02-08T14:40:32;98680.84;;;3.21;49.67
70968;BME280;58629;48.808;8.820;2023-02-08T14:43:35;98680.72;;;3.18;49.46
70968;BME280;58629;48.808;8.820;2023-02-08T14:49:16;98675.28;;;3.23;49.61
70968;BME280;58629;48.808;8.820;2023-02-08T14:52:02;98669.38;;;3.14;49.93
70968;BME280;58629;48.808;8.820;2023-02-08T14:54:44;98666.31;;;3.12;48.83
70968;BME280;58629;48.808;8.820;2023-02-08T14:57:23;98665.28;;;3.04;50.30
70968;BME280;58629;48.808;8.820;2023-02-08T14:59:49;98670.19;;;3.06;50.50
70968;BME280;58629;48.808;8.820;2023-02-08T15:02:20;98657.94;;;2.98;50.23
70968;BME280;58629;48.808;8.820;2023-02-08T15:04:46;98664.13;;;2.93;50.66
70968;BME280;58629;48.808;8.820;2023-02-08T15:10:13;98664.63;;;2.87;50.96
70968;BME280;58629;48.808;8.820;2023-02-08T15:12:41;98665.47;;;2.79;51.06
70968;BME280;58629;48.808;8.820;2023-02-08T15:15:38;98669.66;;;2.71;51.49
70968;BME280;58629;48.808;8.820;2023-02-08T15:18:13;98674.94;;;2.62;51.27
70968;BME280;58629;48.808;8.820;2023-02-08T15:20:39;98660.97;;;2.58;51.54
70968;BME280;58629;48.808;8.820;2023-02-08T15:23:23;98665.28;;;2.54;52.40
70968;BME280;58629;48.808;8.820;2023-02-08T15:26:00;98661.00;;;2.50;51.67